Time;durP1;ratioP1;P1;durP2;ratioP2;P2;SDS_P1;SDS_P2;PMS_P1;PMS_P2;Temp;Humidity;BMP_temperature;BMP_pressure;BME280_temperature;BME280_humidity;BME280_pressure;Samples;Min_cycle;Max_cycle;Signal;HPM_P1;HPM_P2
2022/11/21 00:01:49;;;;;;;;;;;;;;;;;;1849762;77;20427;-63
2022/11/21 00:04:15;;;;;;;;;;;;;;;;;;1852072;77;20158;-62
2022/11/21 00:06:42;;;;;;;;;;;;;;;;;;1849878;77;20173;-62
2022/11/21 00:09:09;;;;;;;;;;;;;;;;;;1852302;77;20166;-62
2022/11/21 00:11:36;;;;;;;;;;;;;;;;;;1850254;77;20289;-62
2022/11/21 00:14:03;;;;;;;;;;;;;;;;;;1852502;77;20169;-62
2022/11/21 00:16:30;;;;;;;;;;;;;;;;;;1849938;77;20227;-62
2022/11/21 00:18:57;;;;;;;;;;;;;;;;;;1852028;77;20150;-62
2022/11/21 00:21:24;;;;;;;;;;;;;;;;;;1850094;77;20178;-62
2022/11/21 00:23:51;;;;;;;;;;;;;;;;;;1852187;77;20166;-63
2022/11/21 00:26:18;;;;;;;;;;;;;;;;;;1852049;77;20162;-62
2022/11/21 00:28:45;;;;;;;;;;;;;;;;;;1852073;77;20164;-62
2022/11/21 00:31:12;;;;;;;;;;;;;;;;;;1850149;77;20247;-62
2022/11/21 00:33:39;;;;;;;;;;;;;;;;;;1851953;77;20185;-62
2022/11/21 00:36:07;;;;;;;;;;;;;;;;;;1850220;77;20162;-62
2022/11/21 00:38:34;;;;;;;;;;;;;;;;;;1852285;77;20433;-64
2022/11/21 00:41:01;;;;;;;;;;;;;;;;;;1852088;77;20466;-63
2022/11/21 00:43:28;;;;;;;;;;;;;;;;;;1852231;77;20383;-63
2022/11/21 00:45:55;;;;;;;;;;;;;;;;;;1852064;77;20165;-63
2022/11/21 00:48:22;;;;;;;;;;;;;;;;;;1850312;77;20182;-63
2022/11/21 00:50:49;;;;;;;;;;;;;;;;;;1852335;77;20174;-63
2022/11/21 00:53:16;;;;;;;;;;;;;;;;;;1852279;77;20193;-63
2022/11/21 00:55:43;;;;;;;;;;;;;;;;;;1850162;77;20202;-63
2022/11/21 00:58:10;;;;;;;;;;;;;;;;;;1852293;77;20181;-63
2022/11/21 01:00:37;;;;;;;;;;;;;;;;;;1851854;77;20185;-62
2022/11/21 01:03:03;;;;;;;;;;;;;;;;;;1852200;77;20177;-62
2022/11/21 01:05:30;;;;;;;;;;;;;;;;;;1850307;77;20201;-62
2022/11/21 01:07:58;;;;;;;;;;;;;;;;;;1852523;77;20126;-63
2022/11/21 01:10:25;;;;;;;;;;;;;;;;;;1852250;77;20178;-62
2022/11/21 01:12:51;;;;;;;;;;;;;;;;;;1852191;77;20177;-63
2022/11/21 01:15:19;;;;;;;;;;;;;;;;;;1852295;77;20158;-62
2022/11/21 01:17:45;;;;;;;;;;;;;;;;;;1852303;77;20126;-62
2022/11/21 01:20:12;;;;;;;;;;;;;;;;;;1850401;77;20177;-62
2022/11/21 01:22:39;;;;;;;;;;;;;;;;;;1852241;77;20242;-62
2022/11/21 01:25:06;;;;;;;;;;;;;;;;;;1850334;77;20309;-62
2022/11/21 01:27:33;;;;;;;;;;;;;;;;;;1852188;77;20181;-62
2022/11/21 01:30:00;;;;;;;;;;;;;;;;;;1852428;77;20169;-63
2022/11/21 01:32:28;;;;;;;;;;;;;;;;;;1852436;77;20356;-63
2022/11/21 01:34:55;;;;;;;;;;;;;;;;;;1852191;77;20170;-61
2022/11/21 01:37:22;;;;;;;;;;;;;;;;;;1850311;77;20174;-63
2022/11/21 01:39:49;;;;;;;;;;;;;;;;;;1852361;77;20212;-63
2022/11/21 01:42:16;;;;;;;;;;;;;;;;;;1852099;77;20165;-63
2022/11/21 01:44:43;;;;;;;;;;;;;;;;;;1850267;77;20173;-63
2022/11/21 01:47:09;;;;;;;;;;;;;;;;;;1852023;77;20219;-62
2022/11/21 01:49:36;;;;;;;;;;;;;;;;;;1852434;77;20173;-62
2022/11/21 01:52:03;;;;;;;;;;;;;;;;;;1852024;77;20297;-62
2022/11/21 01:54:30;;;;;;;;;;;;;;;;;;1852202;77;20558;-62
2022/11/21 01:56:57;;;;;;;;;;;;;;;;;;1850269;77;20384;-62
2022/11/21 01:59:24;;;;;;;;;;;;;;;;;;1832974;77;20467;-62
2022/11/21 02:01:51;;;;;;;;;;;;;;;;;;1851693;77;20458;-62
2022/11/21 02:04:18;;;;;;;;;;;;;;;;;;1852373;77;20788;-63
2022/11/21 02:06:45;;;;;;;;;;;;;;;;;;1850004;76;20533;-62
2022/11/21 02:09:11;;;;;;;;;;;;;;;;;;1850668;77;20193;-62
2022/11/21 02:11:38;;;;;;;;;;;;;;;;;;1850364;77;20597;-62
2022/11/21 02:14:05;;;;;;;;;;;;;;;;;;1850186;77;20200;-62
2022/11/21 02:16:33;;;;;;;;;;;;;;;;;;1852066;77;20864;-62
2022/11/21 02:19:00;;;;;;;;;;;;;;;;;;1850216;77;20173;-63
2022/11/21 02:21:27;;;;;;;;;;;;;;;;;;1852104;77;20158;-63
2022/11/21 02:23:54;;;;;;;;;;;;;;;;;;1850755;77;20169;-62
2022/11/21 02:26:21;;;;;;;;;;;;;;;;;;1850419;77;20436;-62
2022/11/21 02:28:48;;;;;;;;;;;;;;;;;;1852476;77;20118;-62
2022/11/21 02:31:15;;;;;;;;;;;;;;;;;;1850014;77;20262;-62
2022/11/21 02:33:42;;;;;;;;;;;;;;;;;;1852120;77;20868;-62
2022/11/21 02:36:09;;;;;;;;;;;;;;;;;;1852054;77;20219;-62
2022/11/21 02:38:36;;;;;;;;;;;;;;;;;;1852170;77;20489;-62
2022/11/21 02:41:03;;;;;;;;;;;;;;;;;;1850174;77;20455;-64
2022/11/21 02:43:30;;;;;;;;;;;;;;;;;;1852225;77;20185;-63
2022/11/21 02:45:57;;;;;;;;;;;;;;;;;;1850118;77;20228;-62
2022/11/21 02:48:25;;;;;;;;;;;;;;;;;;1850523;77;20522;-63
2022/11/21 02:50:52;;;;;;;;;;;;;;;;;;1852278;77;20162;-62
2022/11/21 02:53:19;;;;;;;;;;;;;;;;;;1852394;77;20122;-62
2022/11/21 02:55:46;;;;;;;;;;;;;;;;;;1852102;77;20169;-62
2022/11/21 02:58:13;;;;;;;;;;;;;;;;;;1852228;77;20176;-62
2022/11/21 03:00:39;;;;;;;;;;;;;;;;;;1849959;77;20339;-63
2022/11/21 03:03:06;;;;;;;;;;;;;;;;;;1850100;77;20170;-63
2022/11/21 03:05:33;;;;;;;;;;;;;;;;;;1849967;77;20233;-62
2022/11/21 03:08:00;;;;;;;;;;;;;;;;;;1852196;76;20177;-62
2022/11/21 03:10:27;;;;;;;;;;;;;;;;;;1850180;77;20231;-62
2022/11/21 03:12:59;;;;;;;;;;;;;;;;;;1852214;77;20174;-62
2022/11/21 03:15:23;;;;;;;;;;;;;;;;;;1851551;77;20466;-62
2022/11/21 03:17:50;;;;;;;;;;;;;;;;;;1852078;77;20523;-65
2022/11/21 03:20:17;;;;;;;;;;;;;;;;;;1852034;77;20396;-63
2022/11/21 03:22:44;;;;;;;;;;;;;;;;;;1850036;77;20305;-64
2022/11/21 03:25:13;;;;;;;;;;;;;;;;;;1850195;77;20181;-62
2022/11/21 03:27:39;;;;;;;;;;;;;;;;;;1851987;77;20170;-63
2022/11/21 03:30:07;;;;;;;;;;;;;;;;;;1850422;77;20553;-63
2022/11/21 03:32:33;;;;;;;;;;;;;;;;;;1850140;77;20439;-65
2022/11/21 03:35:00;;;;;;;;;;;;;;;;;;1850553;77;20434;-63
2022/11/21 03:37:27;;;;;;;;;;;;;;;;;;1851944;77;20114;-63
2022/11/21 03:39:55;;;;;;;;;;;;;;;;;;1850359;77;20202;-62
2022/11/21 03:42:21;;;;;;;;;;;;;;;;;;1852024;77;20466;-62
2022/11/21 03:44:48;;;;;;;;;;;;;;;;;;1852246;77;20119;-62
2022/11/21 03:47:15;;;;;;;;;;;;;;;;;;1851990;77;20181;-62
2022/11/21 03:49:42;;;;;;;;;;;;;;;;;;1852258;77;20178;-62
2022/11/21 03:52:09;;;;;;;;;;;;;;;;;;1852268;77;20208;-62
2022/11/21 03:54:36;;;;;;;;;;;;;;;;;;1852338;77;20126;-63
2022/11/21 03:57:03;;;;;;;;;;;;;;;;;;1852221;77;20181;-63
2022/11/21 03:59:30;;;;;;;;;;;;;;;;;;1850527;77;20194;-62
2022/11/21 04:01:57;;;;;;;;;;;;;;;;;;1851887;77;20192;-63
2022/11/21 04:04:24;;;;;;;;;;;;;;;;;;1850359;77;20199;-63
2022/11/21 04:06:51;;;;;;;;;;;;;;;;;;1850259;77;20158;-62
2022/11/21 04:09:18;;;;;;;;;;;;;;;;;;1852324;76;20130;-63
2022/11/21 04:11:45;;;;;;;;;;;;;;;;;;1852126;77;20208;-62
2022/11/21 04:14:12;;;;;;;;;;;;;;;;;;1850439;77;20181;-63
2022/11/21 04:16:39;;;;;;;;;;;;;;;;;;1852322;77;20150;-62
2022/11/21 04:19:06;;;;;;;;;;;;;;;;;;1850582;77;20166;-62
2022/11/21 04:21:33;;;;;;;;;;;;;;;;;;1852030;77;20205;-63
2022/11/21 04:24:00;;;;;;;;;;;;;;;;;;1852436;77;20165;-64
2022/11/21 04:26:27;;;;;;;;;;;;;;;;;;1852344;77;20196;-63
2022/11/21 04:28:54;;;;;;;;;;;;;;;;;;1850176;77;20585;-63
2022/11/21 04:31:21;;;;;;;;;;;;;;;;;;1852262;77;20305;-63
2022/11/21 04:33:47;;;;;;;;;;;;;;;;;;1852004;77;20385;-63
2022/11/21 04:36:14;;;;;;;;;;;;;;;;;;1852080;77;20212;-63
2022/11/21 04:38:41;;;;;;;;;;;;;;;;;;1852195;77;20181;-62
2022/11/21 04:41:08;;;;;;;;;;;;;;;;;;1852064;77;20470;-63
2022/11/21 04:43:35;;;;;;;;;;;;;;;;;;1850308;77;20162;-63
2022/11/21 04:46:02;;;;;;;;;;;;;;;;;;1852008;77;20162;-63
2022/11/21 04:48:31;;;;;;;;;;;;;;;;;;1850335;77;20224;-62
2022/11/21 04:50:58;;;;;;;;;;;;;;;;;;1852407;77;20192;-62
2022/11/21 04:53:25;;;;;;;;;;;;;;;;;;1850404;77;20181;-62
2022/11/21 04:55:53;;;;;;;;;;;;;;;;;;1825759;78;20210;-63
2022/11/21 04:58:21;;;;;;;;;;;;;;;;;;1826060;78;20175;-62
2022/11/21 05:00:48;;;;;;;;;;;;;;;;;;1819904;78;449282;-63
2022/11/21 05:03:14;;;;;;;;;;;;;;;;;;1825926;78;20510;-62
2022/11/21 05:05:42;;;;;;;;;;;;;;;;;;1824263;78;20299;-63
2022/11/21 05:08:08;;;;;;;;;;;;;;;;;;1826126;77;20598;-62
2022/11/21 05:13:19;;;;;;;;;;;;;;;;;;1824180;78;20468;-62
2022/11/21 05:13:22;;;;;;;;;;;;;;;;;;1804743;78;20187;-63
2022/11/21 05:15:50;;;;;;;;;;;;;;;;;;1826383;78;20171;-62
2022/11/21 05:18:17;;;;;;;;;;;;;;;;;;1826144;78;20313;-62
2022/11/21 05:20:44;;;;;;;;;;;;;;;;;;1826044;78;20167;-63
2022/11/21 05:23:11;;;;;;;;;;;;;;;;;;1824622;78;20160;-63
2022/11/21 05:25:38;;;;;;;;;;;;;;;;;;1824410;78;20358;-63
2022/11/21 05:28:05;;;;;;;;;;;;;;;;;;1826114;78;20176;-63
2022/11/21 05:30:31;;;;;;;;;;;;;;;;;;1824109;78;20945;-63
2022/11/21 05:32:58;;;;;;;;;;;;;;;;;;1824618;78;20422;-63
2022/11/21 05:35:25;;;;;;;;;;;;;;;;;;1825916;78;20566;-63
2022/11/21 05:37:52;;;;;;;;;;;;;;;;;;1826044;78;20168;-63
2022/11/21 05:40:19;;;;;;;;;;;;;;;;;;1826049;78;20124;-63
2022/11/21 05:45:31;;;;;;;;;;;;;;;;;;1824744;78;20203;-63
2022/11/21 05:47:58;;;;;;;;;;;;;;;;;;1826201;78;20116;-63
2022/11/21 05:50:25;;;;;;;;;;;;;;;;;;1824355;78;20183;-62
2022/11/21 05:52:52;;;;;;;;;;;;;;;;;;1824796;78;20171;-62
2022/11/21 05:55:19;;;;;;;;;;;;;;;;;;1826092;78;20472;-62
2022/11/21 05:57:45;;;;;;;;;;;;;;;;;;1826145;78;20457;-62
2022/11/21 06:00:12;;;;;;;;;;;;;;;;;;1825917;78;20180;-62
2022/11/21 06:05:24;;;;;;;;;;;;;;;;;;1825935;78;20228;-63
2022/11/21 06:07:51;;;;;;;;;;;;;;;;;;1826439;78;20178;-63
2022/11/21 06:10:18;;;;;;;;;;;;;;;;;;1826145;77;20206;-62
2022/11/21 06:12:45;;;;;;;;;;;;;;;;;;1826357;78;20896;-62
2022/11/21 06:15:12;;;;;;;;;;;;;;;;;;1826154;78;20182;-62
2022/11/21 06:17:39;;;;;;;;;;;;;;;;;;1824584;78;20381;-63
2022/11/21 06:20:06;;;;;;;;;;;;;;;;;;1826086;78;20398;-63
2022/11/21 06:22:33;;;;;;;;;;;;;;;;;;1826173;78;20175;-65
2022/11/21 06:25:00;;;;;;;;;;;;;;;;;;1824408;78;20175;-63
2022/11/21 06:27:26;;;;;;;;;;;;;;;;;;1825960;78;20182;-63
2022/11/21 06:29:53;;;;;;;;;;;;;;;;;;1826180;78;20171;-63
2022/11/21 06:32:20;;;;;;;;;;;;;;;;;;1824364;78;20187;-63
2022/11/21 06:34:47;;;;;;;;;;;;;;;;;;1824780;78;20390;-63
2022/11/21 06:37:14;;;;;;;;;;;;;;;;;;1826294;78;20175;-63
2022/11/21 06:39:41;;;;;;;;;;;;;;;;;;1826328;78;20343;-63
2022/11/21 06:42:08;;;;;;;;;;;;;;;;;;1824322;78;20409;-63
2022/11/21 06:44:35;;;;;;;;;;;;;;;;;;1826214;78;20206;-63
2022/11/21 06:47:01;;;;;;;;;;;;;;;;;;1824325;78;20471;-63
2022/11/21 06:49:28;;;;;;;;;;;;;;;;;;1826280;78;20578;-63
2022/11/21 06:51:55;;;;;;;;;;;;;;;;;;1825739;78;20424;-63
2022/11/21 06:54:22;;;;;;;;;;;;;;;;;;1826081;78;20428;-65
2022/11/21 06:56:49;;;;;;;;;;;;;;;;;;1825957;78;20398;-63
2022/11/21 06:59:16;;;;;;;;;;;;;;;;;;1826484;78;20211;-63
2022/11/21 07:01:43;;;;;;;;;;;;;;;;;;1824152;78;20164;-63
2022/11/21 07:04:10;;;;;;;;;;;;;;;;;;1826343;78;20163;-62
2022/11/21 07:06:37;;;;;;;;;;;;;;;;;;1826096;78;20195;-63
2022/11/21 07:09:04;;;;;;;;;;;;;;;;;;1824545;78;20230;-63
2022/11/21 07:11:31;;;;;;;;;;;;;;;;;;1825887;78;20176;-63
2022/11/21 07:13:58;;;;;;;;;;;;;;;;;;1826134;78;20195;-63
2022/11/21 07:16:29;;;;;;;;;;;;;;;;;;1824232;78;20187;-63
2022/11/21 07:18:53;;;;;;;;;;;;;;;;;;1825531;78;20187;-63
2022/11/21 07:21:20;;;;;;;;;;;;;;;;;;1826048;78;20175;-63
2022/11/21 07:23:47;;;;;;;;;;;;;;;;;;1826191;78;20210;-63
2022/11/21 07:26:14;;;;;;;;;;;;;;;;;;1826055;78;20172;-63
2022/11/21 07:28:41;;;;;;;;;;;;;;;;;;1824688;78;20268;-63
2022/11/21 07:31:08;;;;;;;;;;;;;;;;;;1824601;78;20180;-63
2022/11/21 07:33:36;;;;;;;;;;;;;;;;;;1826429;78;20179;-63
2022/11/21 07:36:03;;;;;;;;;;;;;;;;;;1826361;78;20417;-63
2022/11/21 07:38:30;;;;;;;;;;;;;;;;;;1826345;78;20128;-63
2022/11/21 07:40:58;;;;;;;;;;;;;;;;;;1826165;78;20175;-63
2022/11/21 07:43:24;;;;;;;;;;;;;;;;;;1826435;78;20242;-63
2022/11/21 07:45:51;;;;;;;;;;;;;;;;;;1825928;78;20175;-63
2022/11/21 07:48:18;;;;;;;;;;;;;;;;;;1826139;78;20129;-64
2022/11/21 07:50:45;;;;;;;;;;;;;;;;;;1826116;78;20171;-63
2022/11/21 07:53:12;;;;;;;;;;;;;;;;;;1826117;78;20184;-63
2022/11/21 07:55:39;;;;;;;;;;;;;;;;;;1824636;78;20211;-63
2022/11/21 07:58:06;;;;;;;;;;;;;;;;;;1826337;78;20183;-63
2022/11/21 08:00:33;;;;;;;;;;;;;;;;;;1824614;78;20188;-63
2022/11/21 08:02:59;;;;;;;;;;;;;;;;;;1826550;78;20218;-63
2022/11/21 08:05:26;;;;;;;;;;;;;;;;;;1826087;78;20179;-63
2022/11/21 08:07:53;;;;;;;;;;;;;;;;;;1824736;78;20199;-63
2022/11/21 08:10:20;;;;;;;;;;;;;;;;;;1824549;78;20145;-63
2022/11/21 08:12:47;;;;;;;;;;;;;;;;;;1826138;78;20171;-63
2022/11/21 08:15:14;;;;;;;;;;;;;;;;;;1826304;78;20163;-63
2022/11/21 08:17:41;;;;;;;;;;;;;;;;;;1824645;78;20232;-63
2022/11/21 08:20:08;;;;;;;;;;;;;;;;;;1826407;78;20860;-63
2022/11/21 08:22:34;;;;;;;;;;;;;;;;;;1826111;78;20362;-63
2022/11/21 08:25:01;;;;;;;;;;;;;;;;;;1824858;78;20160;-63
2022/11/21 08:27:28;;;;;;;;;;;;;;;;;;1826423;78;20486;-64
2022/11/21 08:29:55;;;;;;;;;;;;;;;;;;1826147;78;20458;-63
2022/11/21 08:32:22;;;;;;;;;;;;;;;;;;1826282;78;20397;-64
2022/11/21 08:34:49;;;;;;;;;;;;;;;;;;1826377;78;20460;-63
2022/11/21 08:37:16;;;;;;;;;;;;;;;;;;1826373;78;20179;-63
2022/11/21 08:39:43;;;;;;;;;;;;;;;;;;1826417;78;20108;-65
2022/11/21 08:42:09;;;;;;;;;;;;;;;;;;1826067;78;20172;-64
2022/11/21 08:44:36;;;;;;;;;;;;;;;;;;1824551;78;20180;-66
2022/11/21 08:47:04;;;;;;;;;;;;;;;;;;1825983;78;20175;-65
2022/11/21 08:49:31;;;;;;;;;;;;;;;;;;1824793;78;20198;-64
2022/11/21 08:51:58;;;;;;;;;;;;;;;;;;1824424;78;20195;-64
2022/11/21 08:54:25;;;;;;;;;;;;;;;;;;1826368;78;20171;-64
2022/11/21 08:56:52;;;;;;;;;;;;;;;;;;1825988;78;20163;-64
2022/11/21 08:59:19;;;;;;;;;;;;;;;;;;1824806;78;20168;-64
2022/11/21 09:01:46;;;;;;;;;;;;;;;;;;1823977;78;20168;-64
2022/11/21 09:04:13;;;;;;;;;;;;;;;;;;1826214;78;20187;-64
2022/11/21 09:06:40;;;;;;;;;;;;;;;;;;1825970;78;20180;-64
2022/11/21 09:09:07;;;;;;;;;;;;;;;;;;1824770;78;20320;-63
2022/11/21 09:11:34;;;;;;;;;;;;;;;;;;1826002;78;20124;-64
2022/11/21 09:19:30;;;;;;;;;;;;;;;;;;1824578;78;20469;-64
2022/11/21 09:21:57;;;;;;;;;;;;;;;;;;1826089;78;20539;-64
2022/11/21 09:24:24;;;;;;;;;;;;;;;;;;1826134;78;20183;-64
2022/11/21 09:26:51;;;;;;;;;;;;;;;;;;1824683;78;20420;-63
2022/11/21 09:29:18;;;;;;;;;;;;;;;;;;1826033;78;20436;-64
2022/11/21 09:31:45;;;;;;;;;;;;;;;;;;1825933;78;20943;-64
2022/11/21 09:34:12;;;;;;;;;;;;;;;;;;1824686;78;20171;-64
2022/11/21 09:36:39;;;;;;;;;;;;;;;;;;1824314;78;20203;-64
2022/11/21 09:39:06;;;;;;;;;;;;;;;;;;1826209;78;20388;-64
2022/11/21 09:41:51;;;;;;;;;;;;;;;;;;1824356;78;20128;-64
2022/11/21 09:44:18;;;;;;;;;;;;;;;;;;1826001;78;20171;-64
2022/11/21 09:46:45;;;;;;;;;;;;;;;;;;1826100;78;20206;-64
2022/11/21 09:49:12;;;;;;;;;;;;;;;;;;1826361;78;20268;-64
2022/11/21 09:51:39;;;;;;;;;;;;;;;;;;1826047;78;20271;-64
2022/11/21 09:54:06;;;;;;;;;;;;;;;;;;1826055;78;20184;-64
2022/11/21 09:56:33;;;;;;;;;;;;;;;;;;1825844;78;20140;-63
2022/11/21 09:59:00;;;;;;;;;;;;;;;;;;1826123;78;20179;-64
2022/11/21 10:01:28;;;;;;;;;;;;;;;;;;1823847;78;20199;-64
2022/11/21 10:03:55;;;;;;;;;;;;;;;;;;1826394;78;20238;-64
2022/11/21 10:06:22;;;;;;;;;;;;;;;;;;1825776;78;20518;-63
2022/11/21 10:08:49;;;;;;;;;;;;;;;;;;1826049;78;20836;-64
2022/11/21 10:11:16;;;;;;;;;;;;;;;;;;1826024;78;20163;-64
2022/11/21 10:13:43;;;;;;;;;;;;;;;;;;1826108;78;20163;-64
2022/11/21 10:16:10;;;;;;;;;;;;;;;;;;1826231;78;20441;-64
2022/11/21 10:18:37;;;;;;;;;;;;;;;;;;1826065;78;20214;-64
2022/11/21 10:21:04;;;;;;;;;;;;;;;;;;1825966;78;20872;-64
2022/11/21 10:23:31;;;;;;;;;;;;;;;;;;1824489;78;20476;-64
2022/11/21 10:25:58;;;;;;;;;;;;;;;;;;1824492;78;20426;-64
2022/11/21 10:28:27;;;;;;;;;;;;;;;;;;1826117;78;20437;-66
2022/11/21 10:30:54;;;;;;;;;;;;;;;;;;1825783;78;20199;-64
2022/11/21 10:33:20;;;;;;;;;;;;;;;;;;1824322;78;20457;-64
2022/11/21 10:35:47;;;;;;;;;;;;;;;;;;1825893;78;20179;-64
2022/11/21 10:38:14;;;;;;;;;;;;;;;;;;1826231;78;20177;-64
2022/11/21 10:40:41;;;;;;;;;;;;;;;;;;1824206;78;20370;-64
2022/11/21 10:45:54;;;;;;;;;;;;;;;;;;1824970;78;20175;-64
2022/11/21 10:48:21;;;;;;;;;;;;;;;;;;1826043;78;20183;-64
2022/11/21 10:50:48;;;;;;;;;;;;;;;;;;1825870;78;20179;-64
2022/11/21 10:56:00;;;;;;;;;;;;;;;;;;1824312;78;20175;-64
2022/11/21 10:58:27;;;;;;;;;;;;;;;;;;1824578;78;20168;-64
2022/11/21 11:00:54;;;;;;;;;;;;;;;;;;1823852;78;20183;-64
2022/11/21 11:03:21;;;;;;;;;;;;;;;;;;1825906;78;20180;-64
2022/11/21 11:05:47;;;;;;;;;;;;;;;;;;1824091;78;20175;-64
2022/11/21 11:08:15;;;;;;;;;;;;;;;;;;1826312;78;20164;-64
2022/11/21 11:10:42;;;;;;;;;;;;;;;;;;1826029;78;20319;-64
2022/11/21 11:15:53;;;;;;;;;;;;;;;;;;1826066;78;20160;-64
2022/11/21 11:18:20;;;;;;;;;;;;;;;;;;1826018;78;20187;-64
2022/11/21 11:20:47;;;;;;;;;;;;;;;;;;1826124;78;20444;-64
2022/11/21 11:23:14;;;;;;;;;;;;;;;;;;1826059;78;20128;-64
2022/11/21 11:25:41;;;;;;;;;;;;;;;;;;1824448;78;20211;-65
2022/11/21 11:28:08;;;;;;;;;;;;;;;;;;1824443;78;20540;-64
2022/11/21 11:30:35;;;;;;;;;;;;;;;;;;1826128;78;20268;-65
2022/11/21 11:33:02;;;;;;;;;;;;;;;;;;1824668;78;20467;-64
2022/11/21 11:35:30;;;;;;;;;;;;;;;;;;1826007;78;20175;-64
2022/11/21 11:37:56;;;;;;;;;;;;;;;;;;1826156;78;20438;-64
2022/11/21 11:40:23;;;;;;;;;;;;;;;;;;1824246;78;20283;-64
2022/11/21 11:48:20;;;;;;;;;;;;;;;;;;1826105;78;20176;-66
2022/11/21 11:50:47;;;;;;;;;;;;;;;;;;1825934;78;20456;-64
2022/11/21 11:53:14;;;;;;;;;;;;;;;;;;1826138;78;20440;-64
2022/11/21 11:55:40;;;;;;;;;;;;;;;;;;1825834;78;20468;-64
2022/11/21 11:58:08;;;;;;;;;;;;;;;;;;1824759;78;20509;-65
2022/11/21 12:00:34;;;;;;;;;;;;;;;;;;1825819;78;20117;-64
2022/11/21 12:03:01;;;;;;;;;;;;;;;;;;1824130;78;20172;-66
2022/11/21 12:05:28;;;;;;;;;;;;;;;;;;1824428;78;20207;-65
2022/11/21 12:07:55;;;;;;;;;;;;;;;;;;1826028;78;20186;-66
2022/11/21 12:10:22;;;;;;;;;;;;;;;;;;1824618;78;20252;-68
2022/11/21 12:12:49;;;;;;;;;;;;;;;;;;1826080;78;20180;-65
2022/11/21 12:18:00;;;;;;;;;;;;;;;;;;1825991;78;20198;-64
2022/11/21 12:20:27;;;;;;;;;;;;;;;;;;1826139;78;20191;-64
2022/11/21 12:22:54;;;;;;;;;;;;;;;;;;1826153;78;20175;-65
2022/11/21 12:25:21;;;;;;;;;;;;;;;;;;1826080;78;20195;-65
2022/11/21 12:27:48;;;;;;;;;;;;;;;;;;1826181;78;20303;-64
2022/11/21 12:30:15;;;;;;;;;;;;;;;;;;1824755;78;20452;-64
2022/11/21 12:32:42;;;;;;;;;;;;;;;;;;1824553;78;20581;-66
2022/11/21 12:35:09;;;;;;;;;;;;;;;;;;1825880;78;20496;-64
2022/11/21 12:37:36;;;;;;;;;;;;;;;;;;1826181;78;20447;-64
2022/11/21 12:40:03;;;;;;;;;;;;;;;;;;1824835;78;20390;-66
2022/11/21 12:42:48;;;;;;;;;;;;;;;;;;1826003;78;20188;-64
2022/11/21 12:45:15;;;;;;;;;;;;;;;;;;1825782;78;20172;-64
2022/11/21 12:55:58;;;;;;;;;;;;;;;;;;1826110;78;20168;-65
2022/11/21 12:58:25;;;;;;;;;;;;;;;;;;1826107;78;20187;-65
2022/11/21 13:00:52;;;;;;;;;;;;;;;;;;1825638;78;20179;-64
2022/11/21 13:03:19;;;;;;;;;;;;;;;;;;1824354;78;20464;-65
2022/11/21 13:05:46;;;;;;;;;;;;;;;;;;1824461;78;20191;-64
2022/11/21 13:08:13;;;;;;;;;;;;;;;;;;1825965;78;20175;-64
2022/11/21 13:10:40;;;;;;;;;;;;;;;;;;1825845;78;20211;-64
2022/11/21 13:13:07;;;;;;;;;;;;;;;;;;1826009;77;20440;-64
2022/11/21 13:15:34;;;;;;;;;;;;;;;;;;1824496;78;20229;-64
2022/11/21 13:18:01;;;;;;;;;;;;;;;;;;1824420;78;20175;-64
2022/11/21 13:20:28;;;;;;;;;;;;;;;;;;1825858;78;20175;-64
2022/11/21 13:22:55;;;;;;;;;;;;;;;;;;1826294;78;20218;-64
2022/11/21 13:25:22;;;;;;;;;;;;;;;;;;1825701;78;20179;-64
2022/11/21 13:27:49;;;;;;;;;;;;;;;;;;1824426;78;20296;-65
2022/11/21 13:30:16;;;;;;;;;;;;;;;;;;1825850;78;20167;-64
2022/11/21 13:32:43;;;;;;;;;;;;;;;;;;1824527;78;20195;-64
2022/11/21 13:35:10;;;;;;;;;;;;;;;;;;1825902;78;20175;-65
2022/11/21 13:37:36;;;;;;;;;;;;;;;;;;1824612;78;20175;-65
2022/11/21 13:40:03;;;;;;;;;;;;;;;;;;1824512;78;20191;-64
2022/11/21 13:45:15;;;;;;;;;;;;;;;;;;1825944;78;20120;-65
2022/11/21 13:47:42;;;;;;;;;;;;;;;;;;1826197;78;20331;-65
2022/11/21 13:50:09;;;;;;;;;;;;;;;;;;1824528;78;20495;-64
2022/11/21 13:52:36;;;;;;;;;;;;;;;;;;1824626;78;20488;-64
2022/11/21 13:55:03;;;;;;;;;;;;;;;;;;1825930;78;20191;-64
2022/11/21 13:57:30;;;;;;;;;;;;;;;;;;1826089;78;20433;-64
2022/11/21 13:59:57;;;;;;;;;;;;;;;;;;1824407;78;20476;-65
2022/11/21 14:02:24;;;;;;;;;;;;;;;;;;1825634;78;20448;-65
2022/11/21 14:04:51;;;;;;;;;;;;;;;;;;1826044;78;20476;-64
2022/11/21 14:07:17;;;;;;;;;;;;;;;;;;1825703;78;20175;-65
2022/11/21 14:09:44;;;;;;;;;;;;;;;;;;1826135;78;20183;-64
2022/11/21 14:12:12;;;;;;;;;;;;;;;;;;1826002;77;20179;-64
2022/11/21 14:14:39;;;;;;;;;;;;;;;;;;1826182;78;20202;-64
2022/11/21 14:17:06;;;;;;;;;;;;;;;;;;1824468;78;20197;-65
2022/11/21 14:19:33;;;;;;;;;;;;;;;;;;1826059;78;20261;-64
2022/11/21 14:22:00;;;;;;;;;;;;;;;;;;1825798;78;20831;-64
2022/11/21 14:24:27;;;;;;;;;;;;;;;;;;1825944;78;20520;-65
2022/11/21 14:26:54;;;;;;;;;;;;;;;;;;1824408;78;20886;-64
2022/11/21 14:29:22;;;;;;;;;;;;;;;;;;1825931;78;20426;-64
2022/11/21 14:31:48;;;;;;;;;;;;;;;;;;1824259;78;20483;-65
2022/11/21 14:34:16;;;;;;;;;;;;;;;;;;1824395;78;20117;-65
2022/11/21 14:36:43;;;;;;;;;;;;;;;;;;1824219;78;20179;-64
2022/11/21 14:39:10;;;;;;;;;;;;;;;;;;1824432;78;20203;-65
2022/11/21 14:41:37;;;;;;;;;;;;;;;;;;1825940;78;20300;-65
2022/11/21 14:44:04;;;;;;;;;;;;;;;;;;1826230;78;20175;-65
2022/11/21 14:46:31;;;;;;;;;;;;;;;;;;1825789;78;20201;-65
2022/11/21 14:48:58;;;;;;;;;;;;;;;;;;1826139;78;20291;-65
2022/11/21 14:51:25;;;;;;;;;;;;;;;;;;1824298;78;20172;-65
2022/11/21 14:53:52;;;;;;;;;;;;;;;;;;1826135;78;20168;-64
2022/11/21 14:56:19;;;;;;;;;;;;;;;;;;1826086;78;20179;-65
2022/11/21 14:58:46;;;;;;;;;;;;;;;;;;1826207;78;20128;-65
2022/11/21 15:01:13;;;;;;;;;;;;;;;;;;1824009;78;20194;-65
2022/11/21 15:03:40;;;;;;;;;;;;;;;;;;1824519;78;20164;-65
2022/11/21 15:06:07;;;;;;;;;;;;;;;;;;1825896;78;20223;-64
2022/11/21 15:08:34;;;;;;;;;;;;;;;;;;1826166;78;20175;-65
2022/11/21 15:11:02;;;;;;;;;;;;;;;;;;1826085;78;20202;-67
2022/11/21 15:13:33;;;;;;;;;;;;;;;;;;1826063;77;20171;-65
2022/11/21 15:15:59;;;;;;;;;;;;;;;;;;1826022;78;20502;-65
2022/11/21 15:18:27;;;;;;;;;;;;;;;;;;1824588;78;20311;-65
2022/11/21 15:20:54;;;;;;;;;;;;;;;;;;1825916;78;20184;-65
2022/11/21 15:23:20;;;;;;;;;;;;;;;;;;1826123;78;20509;-64
2022/11/21 15:25:48;;;;;;;;;;;;;;;;;;1824457;78;20362;-65
2022/11/21 15:28:15;;;;;;;;;;;;;;;;;;1826060;78;20463;-64
2022/11/21 15:30:42;;;;;;;;;;;;;;;;;;1825884;78;20476;-65
2022/11/21 15:33:09;;;;;;;;;;;;;;;;;;1825929;78;20184;-64
2022/11/21 15:35:36;;;;;;;;;;;;;;;;;;1826067;78;20475;-65
2022/11/21 15:38:03;;;;;;;;;;;;;;;;;;1825999;78;20197;-64
2022/11/21 15:40:30;;;;;;;;;;;;;;;;;;1826051;78;20172;-65
2022/11/21 15:42:57;;;;;;;;;;;;;;;;;;1826039;78;20176;-64
2022/11/21 15:45:24;;;;;;;;;;;;;;;;;;1825994;78;20199;-65
2022/11/21 15:47:52;;;;;;;;;;;;;;;;;;1824581;78;20211;-64
2022/11/21 15:50:19;;;;;;;;;;;;;;;;;;1824650;78;20180;-64
2022/11/21 15:52:46;;;;;;;;;;;;;;;;;;1826042;78;20165;-65
2022/11/21 15:55:13;;;;;;;;;;;;;;;;;;1826177;78;20191;-64
2022/11/21 15:57:41;;;;;;;;;;;;;;;;;;1826067;78;20179;-64
2022/11/21 16:00:08;;;;;;;;;;;;;;;;;;1824575;78;20172;-64
2022/11/21 16:02:35;;;;;;;;;;;;;;;;;;1826003;78;20179;-65
2022/11/21 16:05:02;;;;;;;;;;;;;;;;;;1824592;78;20164;-64
2022/11/21 16:07:29;;;;;;;;;;;;;;;;;;1826233;78;20164;-63
2022/11/21 16:09:56;;;;;;;;;;;;;;;;;;1824630;78;20124;-64
2022/11/21 16:12:23;;;;;;;;;;;;;;;;;;1826062;78;20175;-64
2022/11/21 16:14:50;;;;;;;;;;;;;;;;;;1824542;78;20187;-63
2022/11/21 16:17:17;;;;;;;;;;;;;;;;;;1826038;78;20206;-63
2022/11/21 16:19:44;;;;;;;;;;;;;;;;;;1824575;78;20209;-64
2022/11/21 16:22:11;;;;;;;;;;;;;;;;;;1826057;78;20172;-64
2022/11/21 16:24:38;;;;;;;;;;;;;;;;;;1826408;78;20455;-63
2022/11/21 16:27:05;;;;;;;;;;;;;;;;;;1826016;78;20171;-64
2022/11/21 16:29:32;;;;;;;;;;;;;;;;;;1826274;78;20207;-64
2022/11/21 16:31:59;;;;;;;;;;;;;;;;;;1824501;78;20180;-64
2022/11/21 16:34:26;;;;;;;;;;;;;;;;;;1826422;78;20171;-64
2022/11/21 16:36:53;;;;;;;;;;;;;;;;;;1826121;78;20164;-64
2022/11/21 16:39:20;;;;;;;;;;;;;;;;;;1826087;78;20171;-68
2022/11/21 16:41:48;;;;;;;;;;;;;;;;;;1824066;78;20319;-63
2022/11/21 16:44:15;;;;;;;;;;;;;;;;;;1823940;78;20203;-64
2022/11/21 16:46:42;;;;;;;;;;;;;;;;;;1825366;78;20172;-63
2022/11/21 16:49:09;;;;;;;;;;;;;;;;;;1825404;78;20172;-63
2022/11/21 16:51:36;;;;;;;;;;;;;;;;;;1825436;78;20184;-63
2022/11/21 16:54:03;;;;;;;;;;;;;;;;;;1825545;78;20210;-64
2022/11/21 16:56:30;;;;;;;;;;;;;;;;;;1823754;78;20171;-65
2022/11/21 16:58:57;;;;;;;;;;;;;;;;;;1825510;78;20187;-64
2022/11/21 17:01:24;;;;;;;;;;;;;;;;;;1823415;78;20206;-64
2022/11/21 17:03:52;;;;;;;;;;;;;;;;;;1825659;78;20163;-64
2022/11/21 17:06:19;;;;;;;;;;;;;;;;;;1825649;78;20863;-64
2022/11/21 17:08:46;;;;;;;;;;;;;;;;;;1825478;78;20179;-64
2022/11/21 17:11:13;;;;;;;;;;;;;;;;;;1821620;78;20436;-65
2022/11/21 17:13:41;;;;;;;;;;;;;;;;;;1823936;78;20881;-65
2022/11/21 17:16:08;;;;;;;;;;;;;;;;;;1826116;78;20163;-65
2022/11/21 17:18:35;;;;;;;;;;;;;;;;;;1824696;78;20172;-65
2022/11/21 17:21:01;;;;;;;;;;;;;;;;;;1824537;78;20200;-66
2022/11/21 17:23:28;;;;;;;;;;;;;;;;;;1826232;78;20171;-68